Time;durP1;ratioP1;P1;durP2;ratioP2;P2;SDS_P1;SDS_P2;PMS_P1;PMS_P2;Temp;Humidity;BMP_temperature;BMP_pressure;BME280_temperature;BME280_humidity;BME280_pressure;Samples;Min_cycle;Max_cycle;Signal;HPM_P1;HPM_P2
2022/12/23 00:02:08;;;;;;;4.57;4.17;;;;;;;8.20;100.00;98992.00;5035387;28;20283;-81
2022/12/23 00:04:35;;;;;;;3.90;3.60;;;;;;;8.23;100.00;99005.75;5036274;28;20208;-80
2022/12/23 00:07:01;;;;;;;4.00;3.70;;;;;;;8.24;100.00;98993.59;5035750;28;20210;-80
2022/12/23 00:09:29;;;;;;;3.57;3.30;;;;;;;8.25;100.00;98997.91;5036237;28;20252;-81
2022/12/23 00:17:23;;;;;;;3.50;2.93;;;;;;;8.27;100.00;98983.94;5035964;28;20220;-81
2022/12/23 00:19:49;;;;;;;3.40;3.10;;;;;;;8.32;100.00;98976.84;5035617;28;20210;-79
2022/12/23 00:22:16;;;;;;;3.10;2.87;;;;;;;8.37;100.00;98975.84;5035863;28;20233;-81
2022/12/23 00:24:43;;;;;;;3.20;2.93;;;;;;;8.28;100.00;98975.22;5035084;28;20210;-79
2022/12/23 00:27:10;;;;;;;3.40;2.50;;;;;;;8.32;100.00;98974.25;5035800;28;20565;-81
2022/12/23 00:29:36;;;;;;;2.87;2.67;;;;;;;8.31;100.00;98976.91;5035492;28;20631;-81
2022/12/23 00:32:03;;;;;;;3.40;3.17;;;;;;;8.27;100.00;98978.75;5034650;28;20574;-81
2022/12/23 00:34:29;;;;;;;2.63;2.43;;;;;;;8.31;100.00;98966.50;5035144;28;20203;-80
2022/12/23 00:36:55;;;;;;;2.87;2.67;;;;;;;8.30;100.00;98957.00;5035151;28;20676;-80
2022/12/23 00:45:14;;;;;;;2.97;2.63;;;;;;;8.18;100.00;98953.06;5032210;28;20325;-80
2022/12/23 00:50:22;;;;;;;2.70;2.50;;;;;;;8.18;100.00;98947.84;5033702;28;20225;-81
2022/12/23 00:52:49;;;;;;;3.07;2.87;;;;;;;8.28;100.00;98945.78;5034628;28;20720;-81
2022/12/23 00:55:15;;;;;;;3.03;2.83;;;;;;;8.28;100.00;98941.44;5034756;28;20245;-80
2022/12/23 00:57:43;;;;;;;2.83;2.30;;;;;;;8.31;100.00;98941.34;5034115;28;20198;-79
2022/12/23 01:00:10;;;;;;;3.10;2.63;;;;;;;8.36;100.00;98941.19;5034246;28;20549;-81
2022/12/23 01:05:38;;;;;;;4.17;2.93;;;;;;;8.43;100.00;98939.28;5033325;28;20200;-81
2022/12/23 01:08:07;;;;;;;2.70;2.50;;;;;;;8.41;100.00;98944.53;5032934;28;20202;-81
2022/12/23 01:10:34;;;;;;;2.97;2.77;;;;;;;8.46;100.00;98937.44;5031863;28;20198;-80
2022/12/23 01:13:02;;;;;;;3.50;3.20;;;;;;;8.53;100.00;98946.69;5033909;28;20218;-81
2022/12/23 01:15:28;;;;;;;3.07;2.80;;;;;;;8.56;100.00;98948.31;5034811;28;20272;-81
2022/12/23 01:17:55;;;;;;;2.90;2.70;;;;;;;8.61;100.00;98946.44;5034851;28;20198;-80
2022/12/23 01:20:22;;;;;;;3.13;2.93;;;;;;;8.62;100.00;98953.34;5034780;28;20268;-80
2022/12/23 01:22:48;;;;;;;2.70;2.50;;;;;;;8.63;100.00;98959.38;5035051;28;20283;-80
2022/12/23 01:25:14;;;;;;;2.67;2.47;;;;;;;8.66;100.00;98962.75;5034250;28;20252;-80
2022/12/23 01:27:41;;;;;;;2.73;2.40;;;;;;;8.67;100.00;98964.41;5034106;28;20252;-80
2022/12/23 01:30:12;;;;;;;2.70;2.50;;;;;;;8.59;100.00;98970.81;5033044;28;20688;-79
2022/12/23 01:32:38;;;;;;;2.67;2.47;;;;;;;8.67;100.00;98968.78;5033818;28;20224;-82
2022/12/23 01:35:05;;;;;;;3.03;2.73;;;;;;;8.69;100.00;98974.78;5034239;28;20256;-80
2022/12/23 01:37:32;;;;;;;3.20;2.97;;;;;;;8.60;100.00;98975.94;5031662;28;20197;-81
2022/12/23 01:39:58;;;;;;;3.90;3.47;;;;;;;8.71;100.00;98975.56;5033487;28;20206;-81
2022/12/23 01:45:14;;;;;;;3.93;3.50;;;;;;;8.66;100.00;98993.06;5033857;28;20601;-81
2022/12/23 01:47:46;;;;;;;3.73;3.47;;;;;;;8.52;100.00;98981.41;5033787;28;20202;-81
2022/12/23 01:50:19;;;;;;;3.90;3.63;;;;;;;8.61;100.00;98971.59;5030387;28;20198;-79
2022/12/23 01:52:51;;;;;;;4.17;3.87;;;;;;;8.65;100.00;98974.03;5033736;28;20218;-82
2022/12/23 01:55:20;;;;;;;4.30;4.00;;;;;;;8.68;100.00;98980.88;5031701;28;20285;-82
2022/12/23 01:57:48;;;;;;;4.13;3.77;;;;;;;8.59;100.00;98974.25;5033730;28;20625;-80
2022/12/23 02:05:45;;;;;;;4.17;3.87;;;;;;;8.65;100.00;98978.38;5031867;28;20313;-79
2022/12/23 02:11:27;;;;;;;4.03;3.73;;;;;;;8.69;100.00;98978.22;5031457;28;20723;-81
2022/12/23 02:17:07;;;;;;;4.90;4.50;;;;;;;8.74;100.00;98985.84;5033679;28;20328;-80
2022/12/23 02:20:02;;;;;;;4.70;4.40;;;;;;;8.78;100.00;98989.19;5035768;28;20676;-81
2022/12/23 02:22:59;;;;;;;5.03;4.67;;;;;;;8.74;100.00;98985.84;5036588;28;20713;-80
2022/12/23 02:26:06;;;;;;;4.77;4.47;;;;;;;8.79;100.00;98990.91;5036259;28;20207;-81
2022/12/23 02:29:11;;;;;;;5.07;4.57;;;;;;;8.76;100.00;98994.47;5035117;28;20285;-80
2022/12/23 02:31:50;;;;;;;5.33;4.87;;;;;;;8.75;100.00;98998.81;5034661;28;20604;-81
2022/12/23 02:34:20;;;;;;;5.43;5.03;;;;;;;8.77;100.00;98998.78;5034767;28;20201;-80
2022/12/23 02:36:55;;;;;;;5.00;4.60;;;;;;;8.78;100.00;98997.88;5037227;28;20672;-80
2022/12/23 02:39:31;;;;;;;5.50;5.10;;;;;;;8.82;100.00;98993.41;5036648;28;20198;-81
2022/12/23 02:42:05;;;;;;;5.40;5.00;;;;;;;8.87;100.00;98991.50;5034424;28;20221;-81
2022/12/23 02:44:39;;;;;;;5.73;5.33;;;;;;;8.89;100.00;99000.94;5033859;28;20274;-81
2022/12/23 02:47:11;;;;;;;5.07;4.60;;;;;;;8.94;100.00;99003.41;5037886;28;20208;-81
2022/12/23 02:49:41;;;;;;;4.87;4.47;;;;;;;8.92;100.00;98998.25;5036590;28;20209;-80
2022/12/23 02:52:12;;;;;;;5.37;4.93;;;;;;;8.87;100.00;99000.13;5035723;28;20295;-81
2022/12/23 02:54:44;;;;;;;5.40;5.00;;;;;;;8.86;100.00;99001.06;5037112;28;20260;-81
2022/12/23 02:57:13;;;;;;;5.20;4.80;;;;;;;8.86;100.00;98998.47;5036419;28;20229;-81
2022/12/23 02:59:45;;;;;;;4.73;4.33;;;;;;;8.90;100.00;99002.66;5036579;28;20206;-81
2022/12/23 03:02:13;;;;;;;5.27;4.83;;;;;;;8.78;100.00;99002.22;5036091;28;20292;-81
2022/12/23 03:04:41;;;;;;;5.63;5.17;;;;;;;8.90;100.00;98999.19;5036578;28;20202;-81
2022/12/23 03:07:16;;;;;;;5.83;5.33;;;;;;;8.91;100.00;99004.34;5036339;28;20304;-81
2022/12/23 03:09:49;;;;;;;5.80;5.30;;;;;;;8.99;100.00;99003.22;5036402;28;20213;-81
2022/12/23 03:12:28;;;;;;;6.03;5.53;;;;;;;8.91;100.00;99003.50;5037282;28;20728;-80
2022/12/23 03:15:11;;;;;;;5.57;5.03;;;;;;;9.01;100.00;99007.47;5033921;28;20209;-79
2022/12/23 03:17:56;;;;;;;6.33;5.83;;;;;;;8.99;100.00;99011.03;5033794;28;20669;-80
2022/12/23 03:20:26;;;;;;;6.27;5.77;;;;;;;9.04;100.00;99011.69;5033287;28;20244;-80
2022/12/23 03:23:00;;;;;;;6.33;5.73;;;;;;;9.00;100.00;99005.78;5033653;28;20291;-80
2022/12/23 03:25:32;;;;;;;6.30;5.80;;;;;;;9.00;100.00;99016.19;5034188;28;20206;-80
2022/12/23 03:28:04;;;;;;;6.17;5.67;;;;;;;9.08;100.00;99008.09;5033740;28;20677;-80
2022/12/23 03:30:33;;;;;;;7.10;6.50;;;;;;;9.14;100.00;99013.09;5034456;28;20228;-79
2022/12/23 03:33:06;;;;;;;7.97;7.30;;;;;;;9.04;100.00;99024.72;5034037;28;20249;-80
2022/12/23 03:35:38;;;;;;;7.97;7.27;;;;;;;9.12;100.00;99020.09;5034336;28;20233;-80
2022/12/23 03:38:08;;;;;;;7.97;7.17;;;;;;;9.15;100.00;99019.97;5034663;28;20213;-79
2022/12/23 03:40:38;;;;;;;8.23;7.50;;;;;;;9.23;100.00;99023.16;5034184;28;20244;-80
2022/12/23 03:43:09;;;;;;;7.63;7.03;;;;;;;9.29;100.00;99028.13;5033678;28;20234;-80
2022/12/23 03:45:38;;;;;;;8.70;8.00;;;;;;;9.27;100.00;99026.50;5034264;28;20209;-80
2022/12/23 03:48:14;;;;;;;9.13;8.23;;;;;;;9.32;100.00;99037.63;5034361;28;20626;-80
2022/12/23 03:50:42;;;;;;;9.37;8.67;;;;;;;9.31;100.00;99044.56;5034191;28;20206;-79
2022/12/23 03:53:11;;;;;;;9.27;8.20;;;;;;;9.07;100.00;99043.69;5034722;28;20237;-81
2022/12/23 03:55:43;;;;;;;9.33;8.53;;;;;;;9.20;100.00;99033.69;5035066;28;20256;-81
2022/12/23 03:58:15;;;;;;;9.20;8.33;;;;;;;9.20;100.00;99038.06;5034951;28;20289;-81
2022/12/23 04:00:48;;;;;;;9.90;8.70;;;;;;;9.20;100.00;99043.28;5034820;28;20241;-81
2022/12/23 04:03:21;;;;;;;9.37;8.47;;;;;;;9.23;100.00;99041.38;5034889;28;20230;-81
2022/12/23 04:05:52;;;;;;;9.63;8.80;;;;;;;9.24;100.00;99044.84;5034343;28;20651;-78
2022/12/23 04:08:24;;;;;;;8.33;7.63;;;;;;;9.29;100.00;99055.94;5035195;28;20206;-79
2022/12/23 04:10:51;;;;;;;9.03;8.23;;;;;;;9.29;100.00;99053.34;5034343;28;20631;-80
2022/12/23 04:13:17;;;;;;;8.33;7.53;;;;;;;9.32;100.00;99055.84;5034000;28;20789;-79
2022/12/23 04:15:44;;;;;;;8.40;7.77;;;;;;;9.29;100.00;99058.53;5034612;28;20240;-79
2022/12/23 04:18:11;;;;;;;8.90;8.10;;;;;;;9.24;100.00;99061.31;5034656;28;20742;-81
2022/12/23 04:20:38;;;;;;;8.70;7.90;;;;;;;9.12;100.00;99062.59;5034366;28;20958;-81
2022/12/23 04:23:05;;;;;;;7.63;7.00;;;;;;;9.10;100.00;99064.41;5034584;28;20760;-81
2022/12/23 04:25:31;;;;;;;8.17;7.37;;;;;;;9.07;100.00;99059.28;5034683;28;20205;-80
2022/12/23 04:27:58;;;;;;;7.43;6.90;;;;;;;9.11;100.00;99053.06;5034867;28;20291;-79
2022/12/23 04:30:26;;;;;;;7.83;7.13;;;;;;;9.07;100.00;99050.66;5034178;28;20750;-79
2022/12/23 04:32:52;;;;;;;7.53;6.83;;;;;;;9.10;100.00;99051.38;5034757;28;20226;-79
2022/12/23 04:35:19;;;;;;;7.23;6.53;;;;;;;9.24;100.00;99058.72;5034655;28;20263;-80
2022/12/23 04:37:46;;;;;;;7.37;6.77;;;;;;;9.21;100.00;99057.97;5035049;28;20680;-81
2022/12/23 04:40:13;;;;;;;7.13;6.43;;;;;;;9.17;100.00;99056.38;5033641;28;20565;-80
2022/12/23 04:42:39;;;;;;;6.63;6.13;;;;;;;9.15;100.00;99061.63;5034456;28;20229;-78
2022/12/23 04:45:06;;;;;;;6.33;5.87;;;;;;;9.04;100.00;99067.22;5035181;28;20618;-81
2022/12/23 04:47:34;;;;;;;6.57;6.07;;;;;;;9.08;100.00;99071.41;5034614;28;20236;-81
2022/12/23 04:50:00;;;;;;;5.93;5.53;;;;;;;9.13;100.00;99085.09;5034809;28;20256;-80
2022/12/23 04:52:27;;;;;;;7.13;6.53;;;;;;;8.76;100.00;99090.75;5034791;28;20230;-80
2022/12/23 04:54:54;;;;;;;9.67;7.73;;;;;;;8.51;100.00;99075.09;5034594;28;20664;-81
2022/12/23 04:57:21;;;;;;;9.07;7.70;;;;;;;8.39;100.00;99062.44;5034916;28;20680;-80
2022/12/23 04:59:47;;;;;;;4.77;4.37;;;;;;;8.40;100.00;99058.94;5034759;28;20208;-78
2022/12/23 05:02:15;;;;;;;4.97;4.40;;;;;;;8.59;100.00;99070.47;5034478;28;20230;-80
2022/12/23 05:04:41;;;;;;;4.40;4.00;;;;;;;8.55;100.00;99074.09;5035232;28;20233;-81
2022/12/23 05:07:08;;;;;;;6.10;3.80;;;;;;;8.48;100.00;99088.16;5035216;28;20232;-80
2022/12/23 05:09:34;;;;;;;3.80;3.50;;;;;;;8.35;100.00;99096.34;5035616;28;20272;-80
2022/12/23 05:12:02;;;;;;;3.10;2.43;;;;;;;8.28;100.00;99097.41;5034669;28;20229;-81
2022/12/23 05:14:28;;;;;;;2.53;2.20;;;;;;;8.29;100.00;99098.28;5035268;28;20680;-80
2022/12/23 05:16:54;;;;;;;3.43;2.97;;;;;;;8.21;100.00;99113.28;5034630;28;20217;-80
2022/12/23 05:19:25;;;;;;;3.37;3.07;;;;;;;8.19;100.00;99118.50;5034663;28;20233;-81
2022/12/23 05:21:51;;;;;;;2.90;2.70;;;;;;;8.32;100.00;99126.78;5034418;28;20226;-81
2022/12/23 05:24:17;;;;;;;4.03;3.70;;;;;;;8.35;100.00;99143.13;5034331;28;20238;-80
2022/12/23 05:26:47;;;;;;;3.60;3.30;;;;;;;8.22;100.00;99136.59;5034070;28;20213;-80
2022/12/23 05:29:15;;;;;;;4.37;3.97;;;;;;;8.16;100.00;99145.44;5034224;28;20210;-81
2022/12/23 05:31:41;;;;;;;4.90;4.40;;;;;;;8.18;100.00;99150.59;5033344;28;20586;-79
2022/12/23 05:34:07;;;;;;;4.60;4.13;;;;;;;8.12;100.00;99155.97;5034390;28;20206;-79
2022/12/23 05:36:34;;;;;;;6.07;4.40;;;;;;;8.04;100.00;99169.19;5034311;28;20228;-80
2022/12/23 05:39:00;;;;;;;4.53;4.13;;;;;;;8.00;100.00;99175.38;5033907;28;20210;-81
2022/12/23 05:41:26;;;;;;;5.53;4.50;;;;;;;7.96;100.00;99174.59;5033649;28;20206;-80
2022/12/23 05:43:53;;;;;;;5.10;4.57;;;;;;;7.91;100.00;99176.50;5033275;28;20234;-80
2022/12/23 05:46:23;;;;;;;6.27;5.07;;;;;;;7.92;100.00;99182.53;5033996;28;20264;-80
2022/12/23 05:48:51;;;;;;;5.97;4.77;;;;;;;7.96;100.00;99182.41;5034215;28;20259;-80
2022/12/23 05:51:17;;;;;;;5.87;5.27;;;;;;;8.03;100.00;99197.84;5034123;28;20210;-80
2022/12/23 05:53:43;;;;;;;7.27;5.80;;;;;;;8.00;100.00;99206.56;5036593;28;20233;-79
2022/12/23 05:56:10;;;;;;;6.43;5.83;;;;;;;7.92;100.00;99206.78;5037606;28;20209;-81
2022/12/23 05:58:36;;;;;;;8.53;6.83;;;;;;;7.91;100.00;99212.03;5038183;28;20213;-80
2022/12/23 06:01:03;;;;;;;8.60;6.30;;;;;;;7.93;100.00;99218.88;5037575;28;20240;-80
2022/12/23 06:03:31;;;;;;;8.63;7.43;;;;;;;8.13;100.00;99215.72;5038320;28;20237;-81
2022/12/23 06:05:57;;;;;;;7.30;6.50;;;;;;;8.26;100.00;99223.16;5037573;28;20216;-80
2022/12/23 06:08:24;;;;;;;10.37;7.10;;;;;;;8.11;100.00;99230.50;5037986;28;20206;-80
2022/12/23 06:10:50;;;;;;;9.27;7.93;;;;;;;8.16;100.00;99219.97;5037470;28;20272;-80
2022/12/23 06:13:17;;;;;;;11.03;8.37;;;;;;;8.07;100.00;99222.84;5037566;28;20226;-81
2022/12/23 06:15:43;;;;;;;12.97;9.40;;;;;;;8.08;100.00;99219.34;5037737;28;20202;-80
2022/12/23 06:18:09;;;;;;;11.70;8.90;;;;;;;8.03;100.00;99218.63;5037164;28;20691;-80
2022/12/23 06:20:37;;;;;;;9.80;8.80;;;;;;;8.06;100.00;99218.53;5037278;28;20685;-80
2022/12/23 06:23:03;;;;;;;11.30;8.97;;;;;;;7.93;100.00;99231.03;5037763;28;20288;-79
2022/12/23 06:25:30;;;;;;;12.03;9.23;;;;;;;7.76;100.00;99224.53;5038428;28;20209;-80
2022/12/23 06:28:00;;;;;;;11.40;9.63;;;;;;;7.82;100.00;99222.66;5039513;28;20680;-80
2022/12/23 06:30:26;;;;;;;12.93;9.60;;;;;;;7.73;100.00;99223.75;5038073;28;20222;-81
2022/12/23 06:32:53;;;;;;;17.13;10.73;;;;;;;7.75;100.00;99233.22;5038106;28;20276;-80
2022/12/23 06:35:19;;;;;;;13.77;9.80;;;;;;;7.66;100.00;99236.06;5038666;28;20263;-80
2022/12/23 06:37:46;;;;;;;14.27;10.23;;;;;;;7.58;100.00;99238.00;5038896;28;20206;-81
2022/12/23 06:40:15;;;;;;;14.83;10.73;;;;;;;7.54;100.00;99245.03;5039165;28;20202;-80
2022/12/23 06:42:41;;;;;;;18.00;11.83;;;;;;;7.54;100.00;99255.41;5038834;28;20311;-80
2022/12/23 06:45:09;;;;;;;19.17;11.57;;;;;;;7.56;100.00;99257.97;5037558;28;20693;-81
2022/12/23 06:47:39;;;;;;;18.53;12.60;;;;;;;7.61;100.00;99265.63;5037487;28;20740;-81
2022/12/23 06:50:07;;;;;;;20.80;11.87;;;;;;;7.71;100.00;99265.38;5037439;28;20216;-80
2022/12/23 06:52:34;;;;;;;18.63;12.00;;;;;;;7.69;100.00;99264.56;5037671;28;20233;-80
2022/12/23 06:55:01;;;;;;;18.40;11.53;;;;;;;7.67;100.00;99263.75;5038057;28;20688;-80
2022/12/23 06:57:28;;;;;;;20.97;13.43;;;;;;;7.66;100.00;99269.81;5037388;28;20206;-81
2022/12/23 06:59:54;;;;;;;16.67;13.00;;;;;;;7.69;100.00;99269.75;5037179;28;20210;-79
2022/12/23 07:02:21;;;;;;;20.03;13.43;;;;;;;7.75;100.00;99272.19;5038138;28;20232;-80
2022/12/23 07:04:47;;;;;;;14.83;12.63;;;;;;;7.79;100.00;99277.28;5036790;28;20578;-81
2022/12/23 07:07:17;;;;;;;16.97;12.10;;;;;;;7.80;100.00;99290.25;5037108;28;20611;-80
2022/12/23 07:09:44;;;;;;;15.47;12.70;;;;;;;7.79;100.00;99290.28;5037623;28;20252;-79
2022/12/23 07:12:11;;;;;;;15.57;11.67;;;;;;;7.78;100.00;99294.63;5036587;28;20593;-80
2022/12/23 07:14:38;;;;;;;17.23;11.93;;;;;;;7.65;100.00;99291.50;5037397;28;20202;-80
2022/12/23 07:17:07;;;;;;;13.90;12.00;;;;;;;7.52;100.00;99313.47;5036968;28;20209;-80
2022/12/23 07:19:34;;;;;;;16.77;12.43;;;;;;;7.54;100.00;99301.31;5036935;28;20274;-80
2022/12/23 07:22:00;;;;;;;14.90;12.03;;;;;;;7.64;100.00;99294.13;5037173;28;20225;-80
2022/12/23 07:24:28;;;;;;;16.50;12.27;;;;;;;7.55;100.00;99308.19;5036891;28;20605;-80
2022/12/23 07:26:56;;;;;;;13.67;11.63;;;;;;;7.48;100.00;99307.50;5037545;28;20209;-79
2022/12/23 07:29:24;;;;;;;15.40;11.33;;;;;;;7.41;100.00;99313.72;5037293;28;20266;-79
2022/12/23 07:31:51;;;;;;;15.33;11.57;;;;;;;7.33;100.00;99313.06;5036757;28;20234;-80
2022/12/23 07:34:18;;;;;;;127.60;14.77;;;;;;;7.23;100.00;99309.81;5036569;28;20205;-80
2022/12/23 07:36:48;;;;;;;214.33;15.10;;;;;;;7.17;100.00;99312.56;5037158;28;20908;-80
2022/12/23 07:39:14;;;;;;;56.37;13.90;;;;;;;7.27;100.00;99306.25;5037243;28;20209;-79
2022/12/23 07:41:40;;;;;;;272.37;18.53;;;;;;;7.08;100.00;99315.38;5036690;28;20212;-78
2022/12/23 07:44:07;;;;;;;80.17;14.43;;;;;;;7.05;100.00;99326.66;5037290;28;20256;-80
2022/12/23 07:46:36;;;;;;;135.37;16.00;;;;;;;7.05;100.00;99324.06;5037319;28;20209;-80
2022/12/23 07:49:03;;;;;;;258.03;19.33;;;;;;;7.01;100.00;99332.81;5037407;28;20214;-79
2022/12/23 07:51:29;;;;;;;158.80;18.33;;;;;;;6.95;100.00;99328.59;5036981;28;20205;-79
2022/12/23 07:53:55;;;;;;;250.67;19.33;;;;;;;6.99;100.00;99332.00;5036512;28;20240;-79
2022/12/23 07:56:22;;;;;;;287.67;20.10;;;;;;;6.95;100.00;99340.75;5037599;28;20599;-79
2022/12/23 07:58:49;;;;;;;282.20;19.53;;;;;;;6.89;100.00;99339.13;5036973;28;20631;-79
2022/12/23 08:01:15;;;;;;;169.17;18.20;;;;;;;6.92;100.00;99341.66;5036067;28;20684;-80
2022/12/23 08:03:50;;;;;;;122.60;17.27;;;;;;;6.97;100.00;99349.34;5036640;28;20229;-79
2022/12/23 08:06:19;;;;;;;91.03;15.13;;;;;;;6.96;100.00;99348.50;5036744;28;20243;-80
2022/12/23 08:08:46;;;;;;;38.37;13.77;;;;;;;7.10;100.00;99352.53;5036906;28;20210;-79
2022/12/23 08:11:14;;;;;;;30.53;14.93;;;;;;;7.19;100.00;99349.72;5036022;28;20232;-79
2022/12/23 08:13:43;;;;;;;34.37;15.47;;;;;;;7.32;100.00;99352.91;5036760;28;20230;-80
2022/12/23 08:16:10;;;;;;;190.00;17.33;;;;;;;7.11;100.00;99364.59;5036036;28;20209;-78
2022/12/23 08:18:39;;;;;;;110.33;15.80;;;;;;;7.11;100.00;99362.00;5037053;28;20580;-80
2022/12/23 08:21:10;;;;;;;81.77;14.33;;;;;;;7.16;100.00;99361.03;5036066;28;20213;-79
2022/12/23 08:23:37;;;;;;;91.67;14.10;;;;;;;7.19;100.00;99367.03;5036170;28;20233;-79
2022/12/23 08:26:06;;;;;;;214.23;17.00;;;;;;;7.07;100.00;99369.00;5036053;28;20672;-80
2022/12/23 08:28:33;;;;;;;219.90;17.93;;;;;;;6.97;100.00;99367.50;5036139;28;20617;-79
2022/12/23 08:31:04;;;;;;;90.40;14.17;;;;;;;6.97;100.00;99365.75;5035589;28;20256;-80
2022/12/23 08:33:31;;;;;;;33.90;13.67;;;;;;;7.21;100.00;99370.44;5035669;28;20767;-80
2022/12/23 08:35:57;;;;;;;21.33;13.07;;;;;;;7.39;100.00;99371.78;5036219;28;20671;-80
2022/12/23 08:38:25;;;;;;;27.23;12.40;;;;;;;7.47;100.00;99377.63;5035768;28;20235;-80
2022/12/23 08:40:51;;;;;;;58.00;13.60;;;;;;;7.52;100.00;99375.78;5035717;28;20216;-80
2022/12/23 08:43:17;;;;;;;21.33;12.77;;;;;;;7.52;100.00;99378.38;5035242;28;20255;-80
2022/12/23 08:45:44;;;;;;;210.87;14.93;;;;;;;7.38;100.00;99389.09;5035516;28;20201;-80
2022/12/23 08:48:12;;;;;;;118.83;13.23;;;;;;;7.41;100.00;99390.75;5043890;23;20839;-77
2022/12/23 08:50:39;;;;;;;18.57;12.13;;;;;;;7.49;100.00;99387.13;5010593;28;20590;-76
2022/12/23 08:53:06;;;;;;;16.30;11.27;;;;;;;7.66;100.00;99381.50;5012008;28;20257;-77
2022/12/23 08:55:38;;;;;;;18.90;11.37;;;;;;;7.77;100.00;99389.06;5011532;28;20241;-77
2022/12/23 08:58:04;;;;;;;19.17;12.37;;;;;;;7.81;100.00;99389.81;5011842;28;20230;-77
2022/12/23 09:00:31;;;;;;;16.63;12.40;;;;;;;7.96;100.00;99394.63;5011753;28;20203;-77
2022/12/23 09:02:57;;;;;;;30.73;11.73;;;;;;;7.87;100.00;99405.25;5012036;28;20666;-77
2022/12/23 09:05:23;;;;;;;27.07;10.63;;;;;;;7.64;100.00;99416.19;5011815;28;20273;-77
2022/12/23 09:07:50;;;;;;;20.90;11.27;;;;;;;7.48;100.00;99410.50;5011903;28;20273;-77
2022/12/23 09:10:16;;;;;;;19.50;11.33;;;;;;;7.54;100.00;99410.38;5011630;28;20284;-77
2022/12/23 09:12:44;;;;;;;15.10;11.53;;;;;;;7.70;100.00;99408.25;5011660;28;20214;-77
2022/12/23 09:15:12;;;;;;;16.23;11.67;;;;;;;7.81;100.00;99402.78;5011978;28;20203;-77
2022/12/23 09:17:38;;;;;;;14.03;11.83;;;;;;;7.84;100.00;99410.53;5011720;28;20226;-77
2022/12/23 09:20:06;;;;;;;16.13;11.23;;;;;;;7.85;100.00;99409.63;5011519;28;20206;-77
2022/12/23 09:22:33;;;;;;;14.80;11.67;;;;;;;7.84;100.00;99411.38;5011684;28;20207;-78
2022/12/23 09:25:00;;;;;;;15.63;11.30;;;;;;;7.89;100.00;99411.28;5011459;28;20755;-77
2022/12/23 09:27:26;;;;;;;12.40;11.10;;;;;;;7.85;100.00;99415.69;5014644;28;20643;-76
2022/12/23 09:29:54;;;;;;;13.03;11.03;;;;;;;7.74;100.00;99418.53;5015622;28;20218;-76
2022/12/23 09:32:20;;;;;;;16.87;10.60;;;;;;;7.56;100.00;99418.97;5015601;28;20279;-77
2022/12/23 09:34:48;;;;;;;16.27;12.03;;;;;;;7.53;100.00;99417.31;5015599;28;20207;-77
2022/12/23 09:37:15;;;;;;;16.93;12.20;;;;;;;7.62;100.00;99415.38;5015523;28;20275;-77
2022/12/23 09:39:41;;;;;;;14.20;12.10;;;;;;;7.54;100.00;99413.81;5015387;28;20213;-77
2022/12/23 09:42:26;;;;;;;16.50;12.30;;;;;;;7.64;100.00;99414.44;5015308;28;20206;-77
2022/12/23 09:45:10;;;;;;;16.17;12.53;;;;;;;7.73;100.00;99415.97;5015487;28;20226;-77
2022/12/23 09:47:41;;;;;;;19.77;16.53;;;;;;;7.88;100.00;99406.97;5015176;28;20296;-77
2022/12/23 09:50:19;;;;;;;16.43;13.60;;;;;;;7.94;100.00;99410.25;5014962;28;20205;-77
2022/12/23 09:52:54;;;;;;;15.30;12.37;;;;;;;8.05;100.00;99414.34;5015367;28;20209;-77
2022/12/23 09:55:23;;;;;;;14.83;11.97;;;;;;;8.12;100.00;99421.94;5014988;28;20206;-77
2022/12/23 09:57:57;;;;;;;17.43;13.50;;;;;;;8.21;100.00;99430.41;5014955;28;20230;-77
2022/12/23 10:00:26;;;;;;;15.33;13.43;;;;;;;8.28;100.00;99417.19;5015134;28;20221;-77
2022/12/23 10:03:11;;;;;;;17.63;15.77;;;;;;;8.35;100.00;99439.53;5015107;28;20209;-77
2022/12/23 10:05:46;;;;;;;15.10;13.53;;;;;;;8.44;100.00;99435.88;5015070;28;20227;-77
2022/12/23 10:08:18;;;;;;;13.70;12.40;;;;;;;8.26;100.00;99444.97;5014809;28;20287;-77
2022/12/23 10:10:48;;;;;;;17.20;15.40;;;;;;;8.25;100.00;99447.63;5013011;28;20638;-77
2022/12/23 10:13:23;;;;;;;13.57;12.07;;;;;;;8.40;100.00;99447.22;5014820;28;20253;-77
2022/12/23 10:15:53;;;;;;;13.13;11.57;;;;;;;8.51;100.00;99428.78;5014975;28;20210;-77
2022/12/23 10:18:24;;;;;;;13.97;12.57;;;;;;;8.47;100.00;99441.00;5014785;28;20274;-77
2022/12/23 10:20:57;;;;;;;13.03;11.57;;;;;;;8.63;100.00;99440.59;5014345;28;20207;-77
2022/12/23 10:23:28;;;;;;;12.67;11.20;;;;;;;8.72;100.00;99442.94;5014661;28;20210;-78
2022/12/23 10:25:54;;;;;;;14.37;12.97;;;;;;;8.43;100.00;99456.75;5014495;28;20590;-77
2022/12/23 10:28:21;;;;;;;14.40;13.00;;;;;;;8.48;100.00;99447.06;5014652;28;20226;-77
2022/12/23 10:30:59;;;;;;;13.47;11.67;;;;;;;8.63;100.00;99448.41;5014329;28;20210;-77
2022/12/23 10:33:36;;;;;;;12.87;11.57;;;;;;;8.69;100.00;99436.06;5011052;28;20229;-77
2022/12/23 10:36:09;;;;;;;14.50;12.07;;;;;;;8.68;100.00;99436.09;5004310;28;20682;-77
2022/12/23 10:38:46;;;;;;;15.07;12.87;;;;;;;8.75;100.00;99442.88;4999191;28;20223;-78
2022/12/23 10:41:22;;;;;;;14.90;11.73;;;;;;;8.83;100.00;99437.44;4994370;28;20211;-77
2022/12/23 10:44:05;;;;;;;16.40;13.10;;;;;;;8.90;100.00;99441.56;4994357;28;20262;-77
2022/12/23 10:46:40;;;;;;;14.77;12.67;;;;;;;8.91;100.00;99449.34;4994849;28;20207;-78
2022/12/23 10:49:24;;;;;;;14.03;12.40;;;;;;;8.93;100.00;99455.34;4994312;28;20296;-77
2022/12/23 10:51:53;;;;;;;13.50;12.07;;;;;;;8.95;100.00;99455.31;4994254;28;20258;-77
2022/12/23 10:54:24;;;;;;;16.50;13.27;;;;;;;8.94;100.00;99454.47;4994088;28;20745;-78
2022/12/23 10:56:51;;;;;;;14.77;12.43;;;;;;;8.94;100.00;99464.88;5006993;28;20203;-78
2022/12/23 10:59:22;;;;;;;15.57;13.90;;;;;;;8.92;100.00;99458.03;5013617;28;20260;-77
2022/12/23 11:01:54;;;;;;;14.97;12.27;;;;;;;8.92;100.00;99461.47;5011564;28;20575;-78
2022/12/23 11:04:31;;;;;;;15.40;12.20;;;;;;;8.89;100.00;99469.34;5013640;28;20708;-78
2022/12/23 11:06:58;;;;;;;18.13;13.70;;;;;;;8.89;100.00;99471.94;5013472;28;20229;-78
2022/12/23 11:09:31;;;;;;;16.63;12.63;;;;;;;8.87;100.00;99471.16;5013297;28;20206;-77
2022/12/23 11:12:00;;;;;;;17.17;12.63;;;;;;;8.89;100.00;99471.94;5010548;28;20199;-77
2022/12/23 11:14:32;;;;;;;17.03;13.47;;;;;;;8.88;100.00;99474.59;5013440;28;20209;-77
2022/12/23 11:17:00;;;;;;;15.47;13.10;;;;;;;8.84;100.00;99472.97;5013600;28;20670;-77
2022/12/23 11:19:26;;;;;;;17.60;13.33;;;;;;;8.84;100.00;99476.44;5013207;28;20221;-77
2022/12/23 11:21:55;;;;;;;17.63;13.73;;;;;;;8.86;100.00;99484.19;5013204;28;20630;-77
2022/12/23 11:24:23;;;;;;;15.37;13.33;;;;;;;8.84;100.00;99476.44;5013345;28;20235;-77
2022/12/23 11:26:58;;;;;;;17.63;13.67;;;;;;;8.87;100.00;99478.09;5013485;28;20206;-76
2022/12/23 11:29:30;;;;;;;17.03;13.37;;;;;;;8.87;100.00;99468.53;5013298;28;20210;-77
2022/12/23 11:31:57;;;;;;;18.30;14.57;;;;;;;8.83;100.00;99469.53;5013270;28;20575;-77
2022/12/23 11:34:26;;;;;;;17.30;13.47;;;;;;;8.81;100.00;99463.50;5013351;28;20199;-77
2022/12/23 11:36:55;;;;;;;17.63;13.30;;;;;;;8.80;100.00;99460.94;5013300;28;20260;-77
2022/12/23 11:39:26;;;;;;;17.60;13.57;;;;;;;8.78;100.00;99452.31;5013148;28;20198;-77
2022/12/23 11:41:55;;;;;;;15.70;13.10;;;;;;;8.83;100.00;99443.50;5012877;28;20203;-77
2022/12/23 11:44:26;;;;;;;14.63;13.07;;;;;;;8.92;100.00;99425.03;5012890;28;20264;-77
2022/12/23 11:46:52;;;;;;;16.47;13.33;;;;;;;8.87;100.00;99413.03;5012971;28;20207;-77
2022/12/23 11:49:20;;;;;;;16.17;13.77;;;;;;;8.87;100.00;99398.28;5013109;28;20265;-76
2022/12/23 11:51:59;;;;;;;17.03;14.17;;;;;;;8.96;100.00;99384.16;5012831;28;20203;-77
2022/12/23 11:54:26;;;;;;;20.13;15.77;;;;;;;8.91;100.00;99380.81;5012804;28;20241;-76
2022/12/23 11:56:54;;;;;;;21.43;14.87;;;;;;;8.94;100.00;99376.41;5012392;28;20256;-76
2022/12/23 11:59:31;;;;;;;19.53;15.47;;;;;;;8.97;100.00;99365.03;5012759;28;20206;-76
2022/12/23 12:02:00;;;;;;;16.27;14.57;;;;;;;9.03;100.00;99370.06;5012353;28;20213;-76
2022/12/23 12:04:30;;;;;;;15.73;14.03;;;;;;;9.05;100.00;99378.66;5012800;28;20288;-76
2022/12/23 12:06:59;;;;;;;18.67;15.67;;;;;;;9.03;100.00;99379.63;5012717;28;20203;-76